createdAt,value
2022-11-06T00:01:43.452Z,7.60
2022-11-06T00:04:11.295Z,7.60
2022-11-06T00:06:50.088Z,7.50
2022-11-06T00:09:20.354Z,7.60
2022-11-06T00:11:49.745Z,7.50
2022-11-06T00:14:19.252Z,7.50
2022-11-06T00:16:48.131Z,7.50
2022-11-06T00:19:16.598Z,7.50
2022-11-06T00:21:45.179Z,7.50
2022-11-06T00:24:14.771Z,7.50
2022-11-06T00:26:43.456Z,7.50
2022-11-06T00:29:14.693Z,7.40
2022-11-06T00:31:43.886Z,7.40
2022-11-06T00:34:12.129Z,7.40
2022-11-06T00:36:39.989Z,7.40
2022-11-06T00:39:08.032Z,7.40
2022-11-06T00:41:35.800Z,7.40
2022-11-06T00:44:04.969Z,7.40
2022-11-06T00:46:32.772Z,7.30
2022-11-06T00:49:01.879Z,7.30
2022-11-06T00:51:31.719Z,7.30
2022-11-06T00:54:00.905Z,7.30
2022-11-06T00:56:29.920Z,7.30
2022-11-06T00:59:00.310Z,7.30
2022-11-06T01:01:30.737Z,7.30
2022-11-06T01:04:02.170Z,7.30
2022-11-06T01:06:32.963Z,7.20
2022-11-06T01:09:01.566Z,7.20
2022-11-06T01:11:52.371Z,7.20
2022-11-06T01:14:22.093Z,7.20
2022-11-06T01:16:50.202Z,7.20
2022-11-06T01:19:21.457Z,7.20
2022-11-06T01:21:49.990Z,7.10
2022-11-06T01:24:19.377Z,7.10
2022-11-06T01:27:12.113Z,7.10
2022-11-06T01:29:35.842Z,7.00
2022-11-06T01:32:03.684Z,7.00
2022-11-06T01:34:32.908Z,7.00
2022-11-06T01:37:00.727Z,7.00
2022-11-06T01:39:28.643Z,6.90
2022-11-06T01:41:56.756Z,6.90
2022-11-06T01:45:17.305Z,6.90
2022-11-06T01:47:45.432Z,6.90
2022-11-06T01:50:16.710Z,7.00
2022-11-06T01:52:45.292Z,6.90
2022-11-06T01:55:18.877Z,6.90
2022-11-06T01:57:48.623Z,6.90
2022-11-06T02:00:17.372Z,6.90
2022-11-06T02:02:45.443Z,6.90
2022-11-06T02:05:14.688Z,6.90
2022-11-06T02:07:44.448Z,6.90
2022-11-06T02:10:12.402Z,6.80
2022-11-06T02:13:02.045Z,6.80
2022-11-06T02:15:39.345Z,6.80
2022-11-06T02:18:22.837Z,6.80
2022-11-06T02:21:09.590Z,6.80
2022-11-06T02:24:07.859Z,6.70
2022-11-06T02:27:01.747Z,6.70
2022-11-06T02:29:34.588Z,6.70
2022-11-06T02:32:08.569Z,6.70
2022-11-06T02:34:37.937Z,6.60
2022-11-06T02:37:12.019Z,6.60
2022-11-06T02:39:42.576Z,6.60
2022-11-06T02:42:15.981Z,6.60
2022-11-06T02:44:45.368Z,6.60
2022-11-06T02:47:15.824Z,6.50
2022-11-06T02:49:48.189Z,6.60
2022-11-06T02:52:20.542Z,6.50
2022-11-06T02:54:55.992Z,6.50
2022-11-06T02:57:27.706Z,6.50
2022-11-06T03:00:02.386Z,6.50
2022-11-06T03:02:34.596Z,6.50
2022-11-06T03:05:06.901Z,6.50
2022-11-06T03:07:38.642Z,6.50
2022-11-06T03:10:08.539Z,6.50
2022-11-06T03:12:50.824Z,6.50
2022-11-06T03:15:25.990Z,6.50
2022-11-06T03:18:01.985Z,6.40
2022-11-06T03:20:36.242Z,6.40
2022-11-06T03:23:10.275Z,6.40
2022-11-06T03:25:47.314Z,6.40
2022-11-06T03:28:23.340Z,6.40
2022-11-06T03:30:55.657Z,6.40
2022-11-06T03:33:31.510Z,6.40
2022-11-06T03:36:04.109Z,6.30
2022-11-06T03:38:38.331Z,6.30
2022-11-06T03:41:14.150Z,6.30
2022-11-06T03:43:48.677Z,6.20
2022-11-06T03:46:20.742Z,6.20
2022-11-06T03:48:52.268Z,6.20
2022-11-06T03:51:23.333Z,6.20
2022-11-06T03:53:54.575Z,6.20
2022-11-06T03:56:24.323Z,6.20
2022-11-06T03:58:56.816Z,6.20
2022-11-06T04:01:29.537Z,6.20
2022-11-06T04:04:00.926Z,6.20
2022-11-06T04:06:34.465Z,6.20
2022-11-06T04:09:24.207Z,6.10
2022-11-06T04:12:10.501Z,6.10
2022-11-06T04:14:43.096Z,6.10
2022-11-06T04:17:14.204Z,6.10
2022-11-06T04:19:47.796Z,6.10
2022-11-06T04:22:30.839Z,6.10
2022-11-06T04:25:27.306Z,6.00
2022-11-06T04:28:07.492Z,6.00
2022-11-06T04:30:44.597Z,6.00
2022-11-06T04:33:19.796Z,6.00
2022-11-06T04:36:00.056Z,6.00
2022-11-06T04:38:35.937Z,6.00
2022-11-06T04:41:12.610Z,5.90
2022-11-06T04:43:45.310Z,5.90
2022-11-06T04:46:20.757Z,5.90
2022-11-06T04:48:49.435Z,5.90
2022-11-06T04:51:20.290Z,5.90
2022-11-06T04:53:50.629Z,5.90
2022-11-06T04:56:25.808Z,5.80
2022-11-06T04:58:53.786Z,5.80
2022-11-06T05:01:23.314Z,5.80
2022-11-06T05:03:51.225Z,5.80
2022-11-06T05:06:19.260Z,5.80
2022-11-06T05:08:47.125Z,5.80
2022-11-06T05:11:15.274Z,5.80
2022-11-06T05:13:43.048Z,5.80
2022-11-06T05:16:10.814Z,5.80
2022-11-06T05:18:39.931Z,5.80
2022-11-06T05:21:25.335Z,5.80
2022-11-06T05:23:53.244Z,5.80
2022-11-06T05:26:21.080Z,5.70
2022-11-06T05:28:49.307Z,5.70
2022-11-06T05:31:17.299Z,5.70
2022-11-06T05:33:46.412Z,5.70
2022-11-06T05:36:14.184Z,5.70
2022-11-06T05:38:41.975Z,5.70
2022-11-06T05:41:09.816Z,5.70
2022-11-06T05:43:37.600Z,5.70
2022-11-06T05:46:07.122Z,5.60
2022-11-06T05:48:42.991Z,5.60
2022-11-06T05:51:12.555Z,5.60
2022-11-06T05:53:40.356Z,5.60
2022-11-06T05:56:09.203Z,5.60
2022-11-06T05:58:37.009Z,5.60
2022-11-06T06:01:05.159Z,5.50
2022-11-06T06:03:33.000Z,5.60
2022-11-06T06:08:30.329Z,5.50
2022-11-06T06:10:58.100Z,5.50
2022-11-06T06:13:25.871Z,5.50
2022-11-06T06:15:53.649Z,5.50
2022-11-06T06:18:21.433Z,5.50
2022-11-06T06:20:49.205Z,5.50
2022-11-06T06:23:16.993Z,5.50
2022-11-06T06:25:46.173Z,5.50
2022-11-06T06:28:14.299Z,5.40
2022-11-06T06:30:42.534Z,5.40
2022-11-06T06:33:10.441Z,5.50
2022-11-06T06:35:38.221Z,5.40
2022-11-06T06:38:06.032Z,5.20
2022-11-06T06:40:33.811Z,5.50
2022-11-06T06:43:02.972Z,5.40
2022-11-06T06:45:30.763Z,5.40
2022-11-06T06:48:03.532Z,5.40
2022-11-06T06:50:31.328Z,5.40
2022-11-06T06:52:59.603Z,5.40
2022-11-06T06:55:27.628Z,5.40
2022-11-06T06:57:59.065Z,5.40
2022-11-06T07:00:29.154Z,5.40
2022-11-06T07:02:57.048Z,5.40
2022-11-06T07:05:25.279Z,5.40
2022-11-06T07:07:53.052Z,5.40
2022-11-06T07:10:21.086Z,5.40
2022-11-06T07:12:48.905Z,5.40
2022-11-06T07:15:16.796Z,5.40
2022-11-06T07:17:45.969Z,5.40
2022-11-06T07:20:14.408Z,5.40
2022-11-06T07:22:42.217Z,5.40
2022-11-06T07:25:10.512Z,5.40
2022-11-06T07:27:38.273Z,5.60
2022-11-06T07:30:07.044Z,5.40
2022-11-06T07:32:34.851Z,5.40
